createdAt,value
2018-11-04T00:01:37.243Z,61.00
2018-11-04T00:04:06.219Z,61.00
2018-11-04T00:06:35.047Z,60.20
2018-11-04T00:09:05.259Z,59.70
2018-11-04T00:11:34.163Z,59.10
2018-11-04T00:14:03.139Z,58.60
2018-11-04T00:16:32.087Z,57.30
2018-11-04T00:19:00.942Z,56.60
2018-11-04T00:21:29.845Z,56.00
2018-11-04T00:23:58.747Z,55.70
2018-11-04T00:26:27.699Z,55.20
2018-11-04T00:28:56.626Z,54.80
2018-11-04T00:31:25.599Z,54.50
2018-11-04T00:33:54.567Z,54.40
2018-11-04T00:36:23.555Z,54.00
2018-11-04T00:38:52.510Z,54.00
2018-11-04T00:41:21.367Z,53.90
2018-11-04T00:43:50.462Z,54.00
2018-11-04T00:46:19.424Z,54.30
2018-11-04T00:48:48.369Z,54.40
2018-11-04T00:51:17.314Z,54.90
2018-11-04T00:54:49.707Z,54.20
2018-11-04T00:57:18.599Z,54.10
2018-11-04T00:59:47.568Z,54.30
2018-11-04T01:02:16.490Z,54.50
2018-11-04T01:04:45.399Z,55.30
2018-11-04T01:07:14.339Z,54.00
2018-11-04T01:09:43.356Z,53.60
2018-11-04T01:12:12.255Z,54.80
2018-11-04T01:14:41.838Z,52.80
2018-11-04T01:17:10.747Z,52.10
2018-11-04T01:19:39.615Z,52.00
2018-11-04T01:22:08.506Z,52.00
2018-11-04T01:24:37.486Z,53.40
2018-11-04T01:27:06.562Z,52.10
2018-11-04T01:29:35.498Z,53.30
2018-11-04T01:32:04.795Z,52.20
2018-11-04T01:34:33.715Z,51.20
2018-11-04T01:37:02.593Z,51.00
2018-11-04T01:39:31.458Z,50.70
2018-11-04T01:42:00.362Z,50.10
2018-11-04T01:44:29.860Z,50.10
2018-11-04T01:46:58.818Z,50.00
2018-11-04T01:49:27.739Z,49.80
2018-11-04T01:51:56.631Z,49.80
2018-11-04T01:54:25.525Z,49.60
2018-11-04T01:56:54.455Z,49.50
2018-11-04T01:59:23.302Z,49.50
2018-11-04T02:01:52.207Z,49.50
2018-11-04T02:04:21.154Z,49.40
2018-11-04T02:06:50.066Z,49.70
2018-11-04T02:09:18.963Z,49.40
2018-11-04T02:11:47.848Z,49.10
2018-11-04T02:14:16.743Z,49.10
2018-11-04T02:16:45.630Z,49.00
2018-11-04T02:19:14.532Z,49.00
2018-11-04T02:21:43.416Z,48.50
2018-11-04T02:24:12.317Z,47.80
2018-11-04T02:26:41.175Z,47.50
2018-11-04T02:29:11.024Z,47.10
2018-11-04T02:31:39.901Z,48.30
2018-11-04T02:34:08.810Z,47.10
2018-11-04T02:36:37.686Z,46.50
2018-11-04T02:39:07.555Z,45.80
2018-11-04T02:41:36.766Z,44.10
2018-11-04T02:46:14.394Z,44.10
2018-11-04T02:48:43.418Z,43.90
2018-11-04T02:51:12.300Z,43.50
2018-11-04T02:53:41.176Z,43.90
2018-11-04T02:56:10.063Z,43.90
2018-11-04T02:58:39.058Z,44.00
2018-11-04T03:01:08.086Z,44.00
2018-11-04T03:03:36.935Z,43.90
2018-11-04T03:06:06.260Z,43.70
2018-11-04T03:08:35.099Z,43.60
2018-11-04T03:11:04.031Z,43.30
2018-11-04T03:13:32.882Z,43.30
2018-11-04T03:16:01.785Z,43.40
2018-11-04T03:18:30.686Z,43.10
2018-11-04T03:20:59.741Z,43.10
2018-11-04T03:23:28.670Z,43.00
2018-11-04T03:25:57.568Z,43.00
2018-11-04T03:28:26.450Z,43.30
2018-11-04T03:30:55.322Z,43.50
2018-11-04T03:33:24.248Z,43.60
2018-11-04T03:35:53.636Z,43.60
2018-11-04T03:38:22.542Z,43.50
2018-11-04T03:40:51.348Z,43.40
2018-11-04T03:43:20.291Z,43.60
2018-11-04T03:45:49.180Z,43.80
2018-11-04T03:48:18.074Z,43.80
2018-11-04T03:50:46.971Z,44.00
2018-11-04T03:53:15.858Z,44.00
2018-11-04T03:55:44.778Z,45.60
2018-11-04T03:58:13.651Z,44.10
2018-11-04T04:00:42.536Z,44.30
2018-11-04T04:03:11.390Z,44.60
2018-11-04T04:05:40.234Z,43.30
2018-11-04T04:08:09.191Z,44.50
2018-11-04T04:10:38.080Z,44.20
2018-11-04T04:13:07.034Z,44.70
2018-11-04T04:15:35.970Z,44.30
2018-11-04T04:18:04.855Z,44.50
2018-11-04T04:20:33.693Z,44.90
2018-11-04T04:23:02.708Z,44.80
2018-11-04T04:25:31.647Z,44.60
2018-11-04T04:28:01.128Z,44.50
2018-11-04T04:30:30.023Z,44.30
2018-11-04T04:32:58.914Z,44.10
2018-11-04T04:35:27.775Z,44.20
2018-11-04T04:37:56.698Z,44.20
2018-11-04T04:40:25.575Z,44.40
2018-11-04T04:42:54.470Z,44.40
2018-11-04T04:45:24.351Z,44.30
2018-11-04T04:47:53.294Z,43.80
2018-11-04T04:50:22.156Z,43.90
2018-11-04T04:52:51.610Z,45.10
2018-11-04T04:55:20.555Z,44.00
2018-11-04T04:57:49.483Z,43.70
2018-11-04T05:00:18.451Z,43.60
2018-11-04T05:02:47.327Z,43.60
2018-11-04T05:05:16.162Z,43.40
2018-11-04T05:07:45.118Z,43.40
2018-11-04T05:10:14.008Z,43.40
2018-11-04T05:12:42.950Z,43.40
2018-11-04T05:15:11.899Z,43.40
2018-11-04T05:17:40.758Z,43.60
2018-11-04T05:20:09.674Z,43.40
2018-11-04T05:22:38.567Z,43.60
2018-11-04T05:25:07.453Z,43.70
2018-11-04T05:27:36.320Z,43.90
2018-11-04T05:30:08.048Z,43.60
2018-11-04T05:32:36.982Z,43.60
2018-11-04T05:35:06.543Z,43.40
2018-11-04T05:37:35.731Z,43.20
2018-11-04T05:40:05.906Z,43.20
2018-11-04T05:42:34.849Z,43.20
2018-11-04T05:45:04.040Z,43.10
2018-11-04T05:47:32.976Z,43.00
2018-11-04T05:50:01.859Z,43.00
2018-11-04T05:52:30.762Z,42.80
2018-11-04T05:54:59.590Z,43.10
2018-11-04T05:57:29.183Z,43.10
2018-11-04T05:59:58.011Z,42.90
2018-11-04T06:02:26.991Z,42.70
2018-11-04T06:04:55.819Z,42.90
2018-11-04T06:07:24.690Z,42.90
2018-11-04T06:09:53.717Z,43.00
2018-11-04T06:12:22.671Z,43.10
2018-11-04T06:14:51.510Z,43.00
2018-11-04T06:17:20.422Z,42.80
2018-11-04T06:19:49.258Z,42.50
2018-11-04T06:22:18.104Z,42.50
2018-11-04T06:24:46.995Z,42.30
2018-11-04T06:27:15.891Z,42.40
2018-11-04T06:29:44.874Z,42.50
2018-11-04T06:32:13.739Z,42.70
2018-11-04T06:34:42.655Z,43.80
2018-11-04T06:38:15.090Z,42.70
2018-11-04T06:40:44.026Z,42.80
2018-11-04T06:43:12.900Z,42.90
2018-11-04T06:45:41.767Z,43.10
2018-11-04T06:48:10.671Z,43.20
2018-11-04T06:50:39.530Z,43.40
2018-11-04T06:53:08.378Z,43.20
2018-11-04T06:55:37.226Z,43.00
2018-11-04T06:58:06.883Z,43.00
2018-11-04T07:00:35.764Z,43.00
2018-11-04T07:03:04.699Z,43.10
2018-11-04T07:05:33.531Z,44.20
2018-11-04T07:08:02.387Z,42.70
2018-11-04T07:10:31.235Z,42.40
2018-11-04T07:13:00.078Z,42.00
2018-11-04T07:15:28.912Z,42.00
2018-11-04T07:17:57.776Z,41.50
2018-11-04T07:27:21.077Z,41.00
2018-11-04T07:29:50.011Z,40.90
2018-11-04T07:32:19.485Z,41.90
2018-11-04T07:34:48.401Z,42.30
2018-11-04T07:37:17.287Z,42.00
2018-11-04T07:39:46.135Z,41.80
2018-11-04T07:42:15.074Z,41.00
2018-11-04T07:44:44.032Z,41.10
2018-11-04T07:47:12.942Z,41.20
2018-11-04T07:49:41.996Z,41.30
2018-11-04T07:52:11.042Z,41.20
2018-11-04T07:54:39.945Z,41.20
2018-11-04T07:57:08.992Z,41.30
2018-11-04T07:59:37.918Z,41.40
2018-11-04T08:02:07.060Z,42.10
2018-11-04T08:04:36.283Z,41.20
2018-11-04T08:07:05.190Z,40.20
2018-11-04T08:09:34.079Z,40.10
2018-11-04T08:12:02.990Z,40.00
2018-11-04T08:14:31.862Z,39.80
2018-11-04T08:17:00.767Z,39.50
2018-11-04T08:19:29.711Z,39.40
2018-11-04T08:21:58.734Z,39.10
2018-11-04T08:24:27.636Z,39.20
2018-11-04T08:26:56.498Z,39.30
2018-11-04T08:29:25.427Z,39.50
2018-11-04T08:31:55.092Z,39.30
2018-11-04T08:34:24.074Z,38.60
2018-11-04T08:36:52.985Z,38.50
2018-11-04T08:39:21.890Z,38.50
2018-11-04T08:41:50.790Z,38.10
2018-11-04T08:44:19.690Z,37.30
2018-11-04T08:46:48.564Z,36.80
2018-11-04T08:49:17.482Z,36.30
2018-11-04T08:51:46.343Z,35.60
2018-11-04T08:54:15.238Z,35.20
2018-11-04T08:56:45.147Z,35.00
2018-11-04T08:59:15.063Z,34.80
2018-11-04T09:01:44.058Z,34.60
2018-11-04T09:04:12.944Z,34.10
2018-11-04T09:06:41.968Z,34.00
2018-11-04T09:09:10.734Z,33.90
2018-11-04T09:11:39.616Z,33.90
2018-11-04T09:14:09.134Z,33.70
2018-11-04T09:16:38.028Z,33.70
2018-11-04T09:19:06.904Z,33.50
2018-11-04T09:21:35.904Z,33.60
2018-11-04T09:24:05.382Z,33.40
2018-11-04T09:26:34.222Z,32.80
2018-11-04T09:29:03.082Z,32.60
2018-11-04T09:31:31.975Z,32.20
2018-11-04T09:34:00.839Z,32.00
2018-11-04T09:36:29.808Z,31.80
2018-11-04T09:38:58.638Z,31.30
2018-11-04T09:41:27.506Z,31.40
2018-11-04T09:43:56.547Z,31.40
2018-11-04T09:46:25.382Z,31.40
2018-11-04T09:48:54.642Z,31.50
2018-11-04T09:51:23.787Z,31.40
2018-11-04T09:53:53.210Z,31.50
2018-11-04T09:56:22.493Z,31.30
2018-11-04T09:58:51.358Z,31.30
2018-11-04T10:01:20.291Z,32.50
2018-11-04T10:03:49.163Z,31.50
2018-11-04T10:06:18.120Z,31.40
2018-11-04T10:08:47.069Z,31.40
2018-11-04T10:11:15.879Z,31.50
2018-11-04T10:13:44.822Z,31.30
2018-11-04T10:16:13.744Z,31.40
2018-11-04T10:18:42.671Z,31.40
2018-11-04T10:21:11.854Z,31.40
2018-11-04T10:23:40.387Z,31.30
2018-11-04T10:26:09.266Z,31.90
2018-11-04T10:28:38.070Z,32.10
2018-11-04T10:31:07.024Z,32.00
2018-11-04T10:33:36.147Z,31.60
2018-11-04T10:36:05.175Z,31.50
2018-11-04T10:38:34.038Z,31.40
2018-11-04T10:41:02.983Z,31.50
2018-11-04T10:43:31.908Z,31.60
2018-11-04T10:46:00.836Z,31.70
2018-11-04T10:48:29.654Z,31.10
2018-11-04T10:50:58.659Z,30.80
2018-11-04T10:53:27.590Z,30.50
2018-11-04T10:55:56.582Z,30.60
2018-11-04T10:58:25.558Z,30.60
2018-11-04T11:00:59.794Z,30.90
2018-11-04T11:03:28.626Z,31.10
2018-11-04T11:05:57.714Z,31.10
2018-11-04T11:08:26.662Z,31.30
2018-11-04T11:10:55.671Z,31.00
2018-11-04T11:13:24.474Z,30.90
2018-11-04T11:15:53.438Z,30.90
2018-11-04T11:18:22.291Z,30.60
2018-11-04T11:20:51.855Z,30.60
2018-11-04T11:23:20.818Z,31.20
2018-11-04T11:25:49.656Z,31.30
2018-11-04T11:28:18.642Z,31.50
2018-11-04T11:30:47.598Z,31.10
2018-11-04T11:33:16.492Z,30.70
2018-11-04T11:35:45.402Z,30.40
2018-11-04T11:38:14.350Z,30.20
2018-11-04T11:40:43.245Z,29.70
2018-11-04T11:43:12.102Z,29.70
2018-11-04T11:45:41.066Z,29.70
2018-11-04T11:48:10.274Z,29.50
2018-11-04T11:50:39.358Z,29.30
2018-11-04T11:53:08.374Z,28.40
2018-11-04T11:55:37.271Z,29.20
2018-11-04T11:58:06.334Z,28.90
2018-11-04T12:00:35.331Z,28.80
2018-11-04T12:03:04.351Z,28.50
2018-11-04T12:05:33.278Z,29.20
2018-11-04T12:08:02.149Z,28.20
2018-11-04T12:10:31.018Z,28.40
2018-11-04T12:12:59.910Z,28.40
2018-11-04T12:15:28.830Z,28.40
2018-11-04T12:17:57.940Z,28.20
2018-11-04T12:20:26.688Z,28.30
2018-11-04T12:22:55.799Z,28.20
2018-11-04T12:25:24.743Z,28.10
2018-11-04T12:27:53.707Z,28.00
2018-11-04T12:30:22.731Z,28.00
2018-11-04T12:32:51.626Z,28.20
2018-11-04T12:35:20.626Z,28.30
2018-11-04T12:37:49.428Z,28.40
2018-11-04T12:40:18.348Z,28.60
2018-11-04T12:42:47.206Z,28.70
2018-11-04T12:45:16.126Z,29.00
2018-11-04T12:47:45.068Z,29.00
2018-11-04T12:50:13.966Z,28.90
2018-11-04T12:52:42.915Z,28.90
2018-11-04T12:55:11.770Z,28.90
2018-11-04T12:57:40.638Z,29.30
2018-11-04T13:00:12.956Z,29.40
2018-11-04T13:02:42.198Z,29.70
2018-11-04T13:05:11.478Z,30.10
2018-11-04T13:07:40.399Z,30.40
2018-11-04T13:10:11.405Z,30.60
2018-11-04T13:12:40.236Z,31.10
2018-11-04T13:15:10.851Z,31.60
2018-11-04T13:17:39.818Z,31.50
2018-11-04T13:20:08.785Z,31.60
2018-11-04T13:22:37.894Z,31.40
2018-11-04T13:25:07.534Z,31.40
2018-11-04T13:27:36.454Z,31.50
2018-11-04T13:30:07.388Z,31.60
2018-11-04T13:32:36.460Z,31.80
2018-11-04T13:35:05.758Z,32.10
2018-11-04T13:37:34.650Z,32.10
2018-11-04T13:40:03.862Z,32.10
2018-11-04T13:42:32.751Z,32.30
2018-11-04T13:45:01.811Z,32.70
2018-11-04T13:47:30.730Z,32.90
2018-11-04T13:50:00.658Z,33.00
2018-11-04T13:52:29.598Z,33.20
2018-11-04T13:54:58.539Z,33.40
2018-11-04T13:57:27.794Z,33.90
2018-11-04T13:59:57.345Z,34.30
2018-11-04T14:02:26.372Z,34.40
2018-11-04T14:04:55.805Z,34.70
2018-11-04T14:07:24.802Z,34.80
2018-11-04T14:09:54.698Z,35.00
2018-11-04T14:12:23.618Z,35.10
2018-11-04T14:14:52.583Z,35.10
2018-11-04T14:17:21.574Z,35.40
2018-11-04T14:19:50.475Z,35.40
2018-11-04T14:22:19.386Z,35.30
2018-11-04T14:24:48.258Z,35.20
2018-11-04T14:27:17.178Z,35.50
2018-11-04T14:29:46.042Z,35.60
2018-11-04T14:32:14.931Z,35.50
2018-11-04T14:34:43.863Z,36.00
2018-11-04T14:37:12.714Z,36.30
2018-11-04T14:39:41.604Z,36.50
2018-11-04T14:42:10.521Z,36.70
2018-11-04T14:44:39.403Z,36.80
2018-11-04T14:47:08.274Z,37.20
2018-11-04T14:49:37.187Z,37.40
2018-11-04T14:52:06.050Z,37.90
2018-11-04T14:54:34.983Z,38.20
2018-11-04T14:57:03.864Z,38.40
2018-11-04T14:59:32.744Z,38.70
2018-11-04T15:02:01.743Z,39.00
2018-11-04T15:04:30.543Z,39.20
2018-11-04T15:06:59.394Z,39.40
2018-11-04T15:09:28.290Z,39.50
2018-11-04T15:14:05.269Z,39.50
2018-11-04T15:16:34.193Z,39.40
2018-11-04T15:19:03.173Z,39.50
2018-11-04T15:21:31.938Z,39.70
2018-11-04T15:24:00.966Z,40.00
2018-11-04T15:26:29.883Z,40.30
2018-11-04T15:28:58.731Z,41.10
2018-11-04T15:31:27.614Z,40.90
2018-11-04T15:33:56.531Z,41.00
2018-11-04T15:36:25.390Z,41.10
2018-11-04T15:38:54.358Z,41.30
2018-11-04T15:41:23.175Z,41.50
2018-11-04T15:43:52.066Z,42.10
2018-11-04T15:46:20.958Z,42.10
2018-11-04T15:48:50.365Z,42.10
2018-11-04T15:51:19.316Z,42.20
2018-11-04T15:53:48.231Z,42.20
2018-11-04T15:56:17.157Z,42.20
2018-11-04T15:58:46.036Z,42.20
2018-11-04T16:01:14.887Z,42.20
2018-11-04T16:03:43.869Z,42.20
2018-11-04T16:06:12.795Z,42.30
2018-11-04T16:08:41.723Z,42.30
2018-11-04T16:11:10.576Z,42.10
2018-11-04T16:13:39.470Z,42.90
2018-11-04T16:16:08.356Z,43.40
2018-11-04T16:18:37.248Z,44.10
2018-11-04T16:21:06.222Z,44.10
2018-11-04T16:23:35.122Z,44.50
2018-11-04T16:26:04.029Z,44.60
2018-11-04T16:28:33.166Z,44.50
2018-11-04T16:31:02.185Z,44.50
2018-11-04T16:33:31.152Z,44.50
2018-11-04T16:36:00.091Z,44.70
2018-11-04T16:45:26.500Z,44.50
2018-11-04T16:47:55.456Z,46.20
2018-11-04T16:50:24.325Z,46.80
2018-11-04T16:52:53.242Z,46.90
2018-11-04T16:55:22.107Z,48.10
2018-11-04T16:57:51.026Z,46.70
2018-11-04T17:00:19.908Z,46.80
2018-11-04T17:02:48.830Z,46.50
2018-11-04T17:05:17.932Z,46.60
2018-11-04T17:07:46.583Z,46.50
2018-11-04T17:10:15.460Z,46.60
2018-11-04T17:12:44.363Z,46.40
2018-11-04T17:15:14.110Z,46.50
2018-11-04T17:17:43.423Z,46.40
2018-11-04T17:20:15.995Z,46.40
2018-11-04T17:22:45.506Z,47.50
2018-11-04T17:25:14.462Z,46.60
2018-11-04T17:27:43.439Z,47.40
2018-11-04T17:30:15.122Z,47.10
2018-11-04T17:32:44.468Z,47.10
2018-11-04T17:35:14.347Z,47.00
2018-11-04T17:37:43.663Z,46.80
2018-11-04T17:40:13.479Z,46.90
2018-11-04T17:42:42.455Z,46.90
2018-11-04T17:45:12.814Z,46.90
2018-11-04T17:47:41.734Z,46.80
2018-11-04T17:50:13.651Z,47.10
2018-11-04T17:52:43.034Z,47.30
2018-11-04T17:55:11.972Z,47.20
2018-11-04T17:57:40.907Z,47.00
2018-11-04T18:00:11.240Z,46.90
2018-11-04T18:02:41.109Z,47.10
2018-11-04T18:05:10.643Z,47.00
2018-11-04T18:07:39.651Z,46.90
2018-11-04T18:10:08.949Z,46.90
2018-11-04T18:12:37.886Z,47.30
2018-11-04T18:15:07.398Z,47.30
2018-11-04T18:17:36.334Z,47.50
2018-11-04T18:20:06.051Z,47.60
2018-11-04T18:22:35.623Z,47.50
2018-11-04T18:25:04.658Z,47.70
2018-11-04T18:27:33.642Z,47.50
2018-11-04T18:30:02.547Z,47.80
2018-11-04T18:32:31.743Z,48.40
2018-11-04T18:35:00.718Z,49.70
2018-11-04T18:37:29.638Z,48.20
2018-11-04T18:39:58.554Z,48.40
2018-11-04T18:42:27.571Z,48.20
2018-11-04T18:44:56.547Z,48.50
2018-11-04T18:47:25.532Z,48.30
2018-11-04T18:49:54.435Z,49.00
2018-11-04T18:52:23.300Z,49.30
2018-11-04T18:54:52.249Z,49.20
2018-11-04T18:57:21.179Z,49.20
2018-11-04T18:59:50.111Z,48.90
2018-11-04T19:02:19.047Z,49.00
2018-11-04T19:04:47.939Z,49.20
2018-11-04T19:07:16.834Z,50.30
2018-11-04T19:09:45.774Z,50.20
2018-11-04T19:12:14.699Z,49.80
2018-11-04T19:14:43.604Z,49.60
2018-11-04T19:17:12.522Z,49.30
2018-11-04T19:19:41.363Z,50.30
2018-11-04T19:22:10.294Z,50.90
2018-11-04T19:24:39.163Z,51.00
2018-11-04T19:27:08.114Z,51.60
2018-11-04T19:29:37.024Z,51.40
2018-11-04T19:32:06.324Z,53.20
2018-11-04T19:34:35.296Z,51.80
2018-11-04T19:37:04.282Z,52.10
2018-11-04T19:39:33.118Z,52.20
2018-11-04T19:42:01.989Z,52.50
2018-11-04T19:44:30.893Z,52.40
2018-11-04T19:46:59.798Z,52.30
2018-11-04T19:49:28.654Z,52.80
2018-11-04T19:51:57.567Z,52.70
2018-11-04T19:54:26.456Z,52.80
2018-11-04T19:56:55.340Z,52.40
2018-11-04T19:59:24.286Z,52.30
2018-11-04T20:01:53.427Z,52.20
2018-11-04T20:04:22.382Z,52.50
2018-11-04T20:06:51.328Z,52.30
2018-11-04T20:09:20.195Z,52.00
2018-11-04T20:11:49.097Z,51.60
2018-11-04T20:14:19.590Z,51.50
2018-11-04T20:16:49.604Z,51.50
2018-11-04T20:19:23.968Z,51.70
2018-11-04T20:21:53.323Z,51.80
2018-11-04T20:24:27.571Z,51.40
2018-11-04T20:26:57.436Z,51.00
2018-11-04T20:29:26.344Z,50.50
2018-11-04T20:32:00.767Z,50.70
2018-11-04T20:34:29.698Z,50.70
2018-11-04T20:36:58.575Z,50.60
2018-11-04T20:39:32.798Z,50.60
2018-11-04T20:42:01.874Z,50.90
2018-11-04T20:44:30.782Z,50.80
2018-11-04T20:46:59.662Z,50.90
2018-11-04T20:49:33.890Z,51.40
2018-11-04T20:52:02.813Z,52.10
2018-11-04T20:54:31.654Z,52.60
2018-11-04T20:57:05.900Z,52.30
2018-11-04T20:59:34.814Z,52.10
2018-11-04T21:02:03.760Z,52.10
2018-11-04T21:04:32.658Z,51.70
2018-11-04T21:07:01.518Z,51.50
2018-11-04T21:09:30.453Z,51.10
2018-11-04T21:11:59.295Z,50.90
2018-11-04T21:14:28.301Z,50.50
2018-11-04T21:16:57.904Z,50.20
2018-11-04T21:19:26.782Z,50.00
2018-11-04T21:21:55.694Z,50.00
2018-11-04T21:24:24.561Z,49.70
2018-11-04T21:26:53.852Z,49.80
2018-11-04T21:29:23.153Z,49.80
2018-11-04T21:31:51.769Z,50.00
2018-11-04T21:34:20.659Z,50.10
2018-11-04T21:36:49.550Z,49.90
2018-11-04T21:39:18.438Z,50.00
2018-11-04T21:41:47.334Z,50.50
2018-11-04T21:44:16.548Z,50.90
2018-11-04T21:46:45.157Z,51.10
2018-11-04T21:49:14.238Z,50.90
2018-11-04T21:51:43.582Z,51.20
2018-11-04T21:54:12.525Z,51.30
2018-11-04T21:56:41.623Z,52.00
2018-11-04T21:59:10.350Z,52.00
2018-11-04T22:01:39.258Z,51.90
2018-11-04T22:04:08.222Z,51.80
2018-11-04T22:06:37.054Z,51.60
2018-11-04T22:09:07.892Z,51.50
2018-11-04T22:13:45.295Z,51.40
2018-11-04T22:16:14.183Z,51.60
2018-11-04T22:18:43.053Z,52.20
2018-11-04T22:21:12.107Z,52.80
2018-11-04T22:23:40.926Z,53.20
2018-11-04T22:26:09.866Z,53.50
2018-11-04T22:28:38.823Z,53.60
2018-11-04T22:31:07.952Z,53.90
2018-11-04T22:33:36.907Z,53.30
2018-11-04T22:36:08.666Z,52.90
2018-11-04T22:38:37.581Z,52.80
2018-11-04T22:41:07.294Z,54.60
2018-11-04T22:43:36.547Z,53.40
2018-11-04T22:46:06.135Z,52.90
2018-11-04T22:48:35.093Z,52.60
2018-11-04T22:51:05.178Z,52.10
2018-11-04T22:53:34.114Z,51.70
2018-11-04T22:56:03.332Z,51.50
2018-11-04T22:58:32.286Z,52.00
2018-11-04T23:01:02.266Z,52.50
2018-11-04T23:03:31.313Z,52.30
2018-11-04T23:06:04.914Z,52.10
2018-11-04T23:08:34.051Z,51.80
2018-11-04T23:11:03.084Z,51.70
2018-11-04T23:13:32.348Z,51.80
2018-11-04T23:16:01.243Z,51.50
2018-11-04T23:18:30.304Z,51.60
2018-11-04T23:20:59.262Z,51.20
2018-11-04T23:23:28.300Z,52.30
2018-11-04T23:25:57.203Z,51.10
2018-11-04T23:28:26.115Z,51.00
2018-11-04T23:30:55.028Z,50.70
2018-11-04T23:33:23.960Z,50.80
2018-11-04T23:35:52.882Z,50.80
2018-11-04T23:38:21.726Z,50.80
2018-11-04T23:40:50.696Z,50.70
2018-11-04T23:43:19.709Z,50.80
2018-11-04T23:45:48.654Z,50.60
2018-11-04T23:48:17.575Z,50.60
2018-11-04T23:50:47.290Z,50.10
2018-11-04T23:53:16.264Z,51.30
2018-11-04T23:55:45.790Z,50.90
2018-11-04T23:58:14.736Z,51.20
